createdAt,value
2018-05-15T03:01:11.414Z,72.53
2018-05-15T03:02:11.982Z,72.25
2018-05-15T03:03:12.553Z,72.44
2018-05-15T03:05:12.088Z,73.21
2018-05-15T03:06:17.260Z,73.39
2018-05-15T03:07:13.746Z,73.01
2018-05-15T03:08:13.059Z,73.39
2018-05-15T03:09:12.566Z,73.49
2018-05-15T03:10:10.609Z,73.30
2018-05-15T03:11:10.615Z,73.39
2018-05-15T03:12:11.015Z,73.68
2018-05-15T03:13:11.023Z,74.44
2018-05-15T03:14:11.064Z,74.16
2018-05-15T03:15:11.359Z,74.54
2018-05-15T03:16:11.320Z,75.11
2018-05-15T03:17:11.605Z,74.63
2018-05-15T03:18:11.758Z,74.44
2018-05-15T03:19:11.948Z,74.54
2018-05-15T03:20:12.077Z,74.73
2018-05-15T03:21:12.761Z,74.54
2018-05-15T03:22:12.800Z,74.25
2018-05-15T03:23:12.728Z,74.25
2018-05-15T03:24:12.929Z,74.25
2018-05-15T03:25:13.079Z,74.44
2018-05-15T03:26:13.436Z,74.82
2018-05-15T03:27:13.656Z,74.73
2018-05-15T03:28:13.824Z,74.44
2018-05-15T03:29:13.864Z,74.06
2018-05-15T03:30:14.089Z,74.63
2018-05-15T03:31:14.471Z,74.63
2018-05-15T03:32:15.213Z,74.44
2018-05-15T03:33:14.636Z,74.82
2018-05-15T03:34:14.763Z,74.16
2018-05-15T03:35:14.949Z,74.54
2018-05-15T03:36:15.129Z,74.63
2018-05-15T03:37:15.294Z,74.31
2018-05-15T03:38:15.503Z,75.07
2018-05-15T03:39:15.566Z,75.07
2018-05-15T03:40:15.770Z,74.98
2018-05-15T03:41:15.892Z,75.07
2018-05-15T03:42:16.151Z,75.55
2018-05-15T03:43:16.421Z,74.50
2018-05-15T03:44:16.360Z,75.64
2018-05-15T03:45:16.569Z,75.64
2018-05-15T03:46:16.722Z,75.16
2018-05-15T03:47:16.869Z,75.26
2018-05-15T03:48:17.057Z,75.74
2018-05-15T03:49:17.325Z,75.26
2018-05-15T03:50:17.540Z,75.74
2018-05-15T03:51:17.495Z,76.31
2018-05-15T03:52:17.939Z,75.49
2018-05-15T03:53:17.878Z,74.54
2018-05-15T03:54:18.155Z,74.06
2018-05-15T03:55:18.288Z,74.25
2018-05-15T03:56:18.409Z,73.30
2018-05-15T03:57:18.651Z,74.25
2018-05-15T03:58:18.744Z,73.11
2018-05-15T03:59:18.892Z,73.52
2018-05-15T04:00:19.014Z,72.28
2018-05-15T04:01:19.396Z,73.33
2018-05-15T04:02:19.401Z,73.52
2018-05-15T04:03:19.742Z,72.28
2018-05-15T04:04:19.865Z,71.43
2018-05-15T04:05:20.196Z,71.52
2018-05-15T04:06:20.388Z,72.23
2018-05-15T04:07:20.510Z,71.46
2018-05-15T04:08:20.647Z,71.27
2018-05-15T04:09:20.930Z,70.89
2018-05-15T04:10:21.375Z,71.08
2018-05-15T04:11:21.005Z,70.79
2018-05-15T04:12:21.648Z,71.46
2018-05-15T04:13:21.310Z,70.70
2018-05-15T04:14:21.781Z,70.79
2018-05-15T04:15:21.581Z,69.65
2018-05-15T04:16:21.931Z,68.98
2018-05-15T04:17:22.236Z,69.17
2018-05-15T04:18:22.298Z,68.60
2018-05-15T04:19:22.539Z,67.65
2018-05-15T04:20:22.487Z,66.69
2018-05-15T04:21:22.914Z,67.01
2018-05-15T04:22:23.116Z,67.11
2018-05-15T04:23:23.272Z,68.06
2018-05-15T04:24:23.438Z,67.58
2018-05-15T04:25:23.673Z,66.72
2018-05-15T04:26:24.000Z,67.30
2018-05-15T04:27:23.809Z,66.53
2018-05-15T04:28:24.137Z,66.25
2018-05-15T04:29:24.267Z,66.56
2018-05-15T04:30:24.439Z,66.47
2018-05-15T04:31:24.554Z,66.47
2018-05-15T04:32:24.839Z,66.19
2018-05-15T04:33:25.003Z,66.19
2018-05-15T04:34:25.213Z,65.71
2018-05-15T04:35:25.836Z,65.90
2018-05-15T04:36:25.642Z,66.38
2018-05-15T04:37:25.727Z,66.28
2018-05-15T04:38:39.254Z,65.14
2018-05-15T04:39:28.942Z,64.37
2018-05-15T04:40:28.818Z,65.14
2018-05-15T04:41:29.085Z,64.75
2018-05-15T04:42:29.890Z,64.56
2018-05-15T04:43:29.054Z,63.89
2018-05-15T04:44:30.112Z,64.02
2018-05-15T04:45:32.033Z,64.50
2018-05-15T04:46:30.089Z,64.22
2018-05-15T04:47:30.468Z,62.97
2018-05-15T04:48:30.935Z,62.78
2018-05-15T04:49:28.073Z,62.68
2018-05-15T04:50:27.969Z,62.30
2018-05-15T04:51:28.106Z,62.49
2018-05-15T04:52:28.359Z,62.43
2018-05-15T04:53:29.075Z,61.57
2018-05-15T04:54:28.589Z,61.66
2018-05-15T04:55:28.972Z,62.04
2018-05-15T04:56:30.224Z,61.76
2018-05-15T04:57:29.384Z,62.43
2018-05-15T04:58:29.518Z,61.57
2018-05-15T04:59:29.812Z,61.38
2018-05-15T05:00:29.730Z,60.90
2018-05-15T05:01:30.613Z,61.09
2018-05-15T05:02:30.660Z,61.85
2018-05-15T05:03:33.193Z,61.95
2018-05-15T05:04:30.648Z,62.74
2018-05-15T05:05:30.905Z,62.74
2018-05-15T05:08:16.360Z,60.90
2018-05-15T05:09:16.864Z,60.45
2018-05-15T05:10:19.815Z,61.51
2018-05-15T05:11:18.665Z,61.31
2018-05-15T05:12:18.726Z,62.94
2018-05-15T05:13:16.407Z,61.02
2018-05-15T05:15:18.746Z,60.55
2018-05-15T05:16:29.656Z,61.51
2018-05-15T05:17:18.954Z,60.93
2018-05-15T05:18:17.960Z,59.59
2018-05-15T05:19:17.965Z,60.00
2018-05-15T05:21:18.865Z,60.67
2018-05-15T05:22:22.735Z,60.19
2018-05-15T05:23:19.105Z,60.77
2018-05-15T05:24:19.920Z,60.19
2018-05-15T05:25:19.567Z,60.58
2018-05-15T05:38:39.180Z,58.05
2018-05-15T05:39:24.355Z,58.81
2018-05-15T05:40:22.591Z,56.81
2018-05-15T05:41:31.671Z,58.15
2018-05-15T05:43:25.307Z,56.32
2018-05-15T05:44:26.777Z,56.81
2018-05-15T06:30:26.139Z,56.00
2018-05-15T06:31:25.792Z,56.19
2018-05-15T06:32:29.391Z,56.29
2018-05-15T06:33:26.761Z,57.82
2018-05-15T06:34:27.378Z,59.16
2018-05-15T06:37:28.100Z,58.01
2018-05-15T06:41:27.245Z,57.65
2018-05-15T06:42:26.496Z,57.65
2018-05-15T06:46:53.844Z,56.02
2018-05-15T06:47:55.383Z,56.15
2018-05-15T06:48:56.472Z,55.00
2018-05-15T06:49:55.941Z,54.74
2018-05-15T06:50:56.583Z,53.49
2018-05-15T06:52:00.342Z,53.78
2018-05-15T06:52:59.776Z,53.80
2018-05-15T06:53:55.977Z,54.96
2018-05-15T06:55:00.386Z,53.16
2018-05-15T06:55:56.105Z,53.25
2018-05-15T06:56:57.397Z,51.33
2018-05-15T06:59:57.585Z,52.39
2018-05-15T07:00:00.495Z,52.39
2018-05-15T07:01:00.622Z,52.20
2018-05-15T07:02:00.929Z,51.04
2018-05-15T07:03:01.204Z,50.66
2018-05-15T07:04:01.790Z,51.33
2018-05-15T07:05:01.491Z,51.33
2018-05-15T07:06:01.942Z,53.54
2018-05-15T07:07:02.008Z,51.02
2018-05-15T07:08:02.025Z,51.72
2018-05-15T07:09:02.149Z,52.00
2018-05-15T07:10:02.343Z,52.00
2018-05-15T07:11:03.453Z,49.79
2018-05-15T07:12:02.954Z,50.37
2018-05-15T07:13:03.067Z,50.08
2018-05-15T07:14:03.119Z,50.46
2018-05-15T07:15:03.259Z,50.37
2018-05-15T07:16:03.741Z,49.99
2018-05-15T07:17:03.807Z,49.91
2018-05-15T07:18:04.260Z,49.43
2018-05-15T07:19:04.317Z,49.31
2018-05-15T07:20:04.374Z,50.40
2018-05-15T07:21:04.740Z,50.78
2018-05-15T07:22:04.832Z,49.05
2018-05-15T07:23:05.234Z,49.63
2018-05-15T07:24:05.315Z,51.07
2018-05-15T07:25:10.718Z,51.76
2018-05-15T07:27:42.423Z,50.04
2018-05-15T09:02:45.676Z,34.81
2018-05-15T09:24:59.838Z,34.94
2018-05-15T09:26:50.991Z,33.12
2018-05-15T10:43:51.226Z,32.04
2018-05-15T10:44:56.632Z,33.87
2018-05-15T10:45:57.348Z,34.92
2018-05-15T10:47:56.400Z,35.10
2018-05-15T10:48:55.617Z,34.91
2018-05-15T10:49:55.532Z,34.62
2018-05-15T10:50:59.858Z,33.94
2018-05-15T10:51:56.499Z,33.65
2018-05-15T10:53:54.457Z,33.67
2018-05-15T10:54:53.942Z,33.76
2018-05-15T10:55:53.737Z,34.71
2018-05-15T10:56:54.062Z,36.65
2018-05-15T10:57:55.869Z,37.02
2018-05-15T10:58:54.568Z,37.12
2018-05-15T10:59:54.489Z,36.90
2018-05-15T11:04:10.469Z,37.65
2018-05-15T11:05:06.864Z,37.93
2018-05-15T11:07:08.849Z,38.70
2018-05-15T11:09:12.298Z,38.21
2018-05-15T11:10:08.410Z,38.20
2018-05-15T11:11:10.179Z,39.06
2018-05-15T11:12:08.134Z,40.12
2018-05-15T11:13:05.984Z,40.90
2018-05-15T11:14:05.818Z,40.70
2018-05-15T11:15:06.606Z,42.03
2018-05-15T11:16:05.971Z,43.38
2018-05-15T11:17:10.081Z,45.03
2018-05-15T11:18:13.368Z,45.99
2018-05-15T11:19:06.521Z,47.24
2018-05-15T11:20:06.740Z,47.05
2018-05-15T11:21:07.791Z,47.22
2018-05-15T11:22:18.672Z,47.14
2018-05-15T11:23:11.872Z,45.41
2018-05-15T11:24:10.772Z,46.06
2018-05-15T11:25:10.159Z,48.88
2018-05-15T11:26:08.189Z,47.99
2018-05-15T11:27:07.982Z,45.60
2018-05-15T11:28:08.147Z,43.38
2018-05-15T11:29:08.366Z,45.99
2018-05-15T11:30:08.474Z,45.51
2018-05-15T11:31:09.034Z,46.86
2018-05-15T11:32:25.672Z,46.56
2018-05-15T11:33:09.500Z,46.47
2018-05-15T11:34:10.222Z,45.79
2018-05-15T11:35:09.722Z,45.43
2018-05-15T11:36:09.882Z,47.07
2018-05-15T11:38:59.829Z,42.83
2018-05-15T11:41:33.236Z,43.60
2018-05-15T11:42:33.600Z,43.60
2018-05-15T11:43:33.899Z,45.04
2018-05-15T11:57:08.292Z,39.09
2018-05-15T11:58:07.674Z,36.10
2018-05-15T12:04:44.719Z,36.57
2018-05-15T12:07:28.632Z,34.71
2018-05-15T12:08:26.047Z,38.20
2018-05-15T12:10:37.024Z,35.08
2018-05-15T12:11:26.344Z,34.70
2018-05-15T12:29:47.242Z,33.84
2018-05-15T16:34:20.208Z,83.11
2018-05-15T16:40:53.624Z,82.92
2018-05-15T16:42:44.840Z,85.06
2018-05-15T16:43:46.934Z,84.39
2018-05-15T16:54:21.682Z,83.39
2018-05-15T16:58:49.667Z,84.92
2018-05-15T17:05:51.121Z,85.94
2018-05-15T17:06:52.234Z,86.41
2018-05-15T17:07:53.744Z,86.80
2018-05-15T17:09:56.282Z,86.70
2018-05-15T17:10:56.415Z,86.80
2018-05-15T17:18:47.685Z,88.48
2018-05-15T17:19:49.523Z,88.48
2018-05-15T17:20:50.281Z,87.81
2018-05-15T17:21:47.208Z,87.90
2018-05-15T17:22:47.363Z,87.62
2018-05-15T17:23:47.450Z,87.71
2018-05-15T17:24:47.651Z,88.57
2018-05-15T17:25:47.893Z,89.24
2018-05-15T17:26:48.100Z,88.86
2018-05-15T17:27:48.159Z,88.29
2018-05-15T17:28:48.410Z,88.57
2018-05-15T17:29:48.587Z,88.95
2018-05-15T17:30:48.652Z,89.72
2018-05-15T17:31:48.905Z,88.81
2018-05-15T17:32:49.043Z,88.71
2018-05-15T17:33:49.221Z,89.29
2018-05-15T17:34:49.348Z,89.19
2018-05-15T17:35:51.706Z,89.34
2018-05-15T17:43:30.086Z,89.86
2018-05-15T17:44:33.091Z,89.76
2018-05-15T18:18:09.240Z,91.06
2018-05-15T18:20:28.485Z,90.96
2018-05-15T21:46:39.371Z,98.47
